Time;durP1;ratioP1;P1;durP2;ratioP2;P2;SDS_P1;SDS_P2;PMS_P1;PMS_P2;Temp;Humidity;BMP_temperature;BMP_pressure;BME280_temperature;BME280_humidity;BME280_pressure;Samples;Min_cycle;Max_cycle;Signal;HPM_P1;HPM_P2
2023/07/23 00:00:31;;;;;;;5.85;4.22;;;15.80;99.90;;;16.75;71.58;97711.34;10356038;28;20222;-78
2023/07/23 00:05:34;;;;;;;5.10;4.60;;;15.80;99.90;;;16.54;71.63;97711.56;10351006;28;20240;-79
2023/07/23 00:10:38;;;;;;;4.45;3.88;;;15.70;99.90;;;16.51;72.31;97703.72;10357810;28;20232;-76
2023/07/23 00:15:42;;;;;;;4.40;4.00;;;15.60;99.90;;;16.47;72.46;97709.59;10354546;28;20678;-76
2023/07/23 00:20:45;;;;;;;4.65;4.25;;;15.60;99.90;;;16.48;72.36;97703.59;10356075;28;20218;-78
2023/07/23 00:25:48;;;;;;;3.97;3.67;;;15.60;99.90;;;16.32;72.60;97709.13;10366641;28;20226;-77
2023/07/23 00:30:53;;;;;;;4.70;4.22;;;15.40;99.90;;;16.40;72.52;97702.50;10360636;28;20789;-76
2023/07/23 00:35:56;;;;;;;4.55;4.15;;;15.50;99.90;;;16.28;73.57;97707.25;10355429;28;20230;-77
2023/07/23 00:40:59;;;;;;;4.30;3.90;;;15.40;99.90;;;16.14;73.58;97705.13;10366858;28;20258;-78
2023/07/23 00:46:04;;;;;;;4.38;4.00;;;15.30;99.90;;;16.11;73.81;97697.31;10359912;28;20236;-78
2023/07/23 00:51:07;;;;;;;4.75;4.35;;;15.20;99.90;;;16.09;74.21;97690.34;10354976;28;20774;-77
2023/07/23 00:56:10;;;;;;;4.63;4.22;;;15.20;99.90;;;16.11;74.98;97684.41;10354464;28;20232;-77
2023/07/23 01:01:15;;;;;;;4.72;4.32;;;15.20;99.90;;;16.04;75.19;97687.59;10355248;28;20253;-77
2023/07/23 01:06:20;;;;;;;4.30;4.00;;;15.00;99.90;;;15.93;75.68;97676.06;10352835;28;20237;-77
2023/07/23 01:11:24;;;;;;;4.28;3.88;;;15.00;99.90;;;15.98;75.79;97682.25;10345827;28;20751;-78
2023/07/23 01:16:30;;;;;;;4.65;4.18;;;15.00;99.90;;;15.78;75.76;97673.84;10357299;28;20230;-77
2023/07/23 01:21:33;;;;;;;4.25;3.85;;;14.90;99.90;;;15.72;76.37;97682.25;10357128;28;20234;-76
2023/07/23 01:26:37;;;;;;;4.32;4.03;;;14.90;99.90;;;15.63;76.51;97674.19;10359122;28;20234;-77
2023/07/23 01:31:41;;;;;;;4.57;4.13;;;14.70;99.90;;;15.59;76.18;97677.44;10356743;28;20226;-77
2023/07/23 01:36:45;;;;;;;5.15;3.65;;;14.60;99.90;;;15.02;79.25;97666.84;10361515;28;20222;-77
2023/07/23 01:41:50;;;;;;;4.32;3.80;;;14.10;99.90;;;14.98;80.08;97667.56;10351448;28;20230;-76
2023/07/23 01:46:53;;;;;;;4.45;4.05;;;14.10;99.90;;;14.78;80.15;97667.69;10357340;28;20244;-77
2023/07/23 01:51:56;;;;;;;4.47;4.07;;;14.00;99.90;;;14.88;80.23;97661.22;10358998;28;20237;-77
2023/07/23 01:57:03;;;;;;;5.00;4.60;;;14.00;99.90;;;14.85;81.35;97654.25;10346474;28;20230;-77
2023/07/23 02:02:10;;;;;;;4.68;3.95;;;14.00;99.90;;;14.78;81.34;97653.97;10348553;28;20699;-77
2023/07/23 02:07:14;;;;;;;5.47;3.95;;;14.00;99.90;;;14.83;80.62;97652.44;10355166;28;20242;-77
2023/07/23 02:12:19;;;;;;;5.07;4.57;;;14.10;99.90;;;14.90;81.06;97651.84;10344893;28;20233;-77
2023/07/23 02:17:22;;;;;;;4.30;3.75;;;14.20;99.90;;;14.88;80.31;97648.34;10357897;28;20231;-77
2023/07/23 02:22:25;;;;;;;3.85;3.55;;;14.10;99.90;;;14.97;80.52;97647.81;10350853;28;20280;-77
2023/07/23 02:27:30;;;;;;;4.45;4.05;;;14.20;99.90;;;15.02;80.10;97646.25;10345277;28;20237;-77
2023/07/23 02:32:33;;;;;;;4.43;4.07;;;14.30;99.90;;;15.10;80.40;97647.41;10357031;28;20226;-77
2023/07/23 02:37:36;;;;;;;3.75;3.45;;;14.30;99.90;;;15.07;79.47;97644.72;10356818;28;20741;-77
2023/07/23 02:42:41;;;;;;;4.72;4.32;;;14.20;99.90;;;15.04;80.08;97649.78;10344089;28;20223;-76
2023/07/23 02:47:44;;;;;;;4.07;3.78;;;14.20;99.90;;;15.05;80.33;97648.94;10353617;28;20227;-76
2023/07/23 02:52:47;;;;;;;4.68;4.20;;;14.20;99.90;;;15.02;81.04;97644.59;10348123;28;20230;-77
2023/07/23 02:57:52;;;;;;;4.30;3.90;;;14.10;99.90;;;14.97;80.93;97660.69;10351816;28;20254;-77
2023/07/23 03:02:56;;;;;;;4.60;4.20;;;14.10;99.90;;;14.90;81.13;97658.69;10351243;28;20238;-76
2023/07/23 03:08:00;;;;;;;4.50;4.10;;;14.10;99.90;;;14.81;81.81;97667.81;10362581;28;20238;-77
2023/07/23 03:13:04;;;;;;;4.65;4.20;;;14.00;99.90;;;14.84;81.10;97667.06;10364760;28;20238;-77
2023/07/23 03:18:08;;;;;;;3.97;3.60;;;13.90;99.90;;;14.78;82.33;97662.56;10351988;28;20342;-77
2023/07/23 03:23:11;;;;;;;3.85;3.55;;;13.90;99.90;;;14.77;82.26;97662.50;10359274;28;20257;-77
2023/07/23 03:28:16;;;;;;;4.13;3.60;;;13.90;99.90;;;14.84;80.59;97660.22;10352894;28;21032;-78
2023/07/23 03:33:19;;;;;;;4.20;3.80;;;13.90;99.90;;;14.64;82.55;97668.88;10359127;28;20257;-77
2023/07/23 03:38:22;;;;;;;4.57;4.18;;;13.70;99.90;;;14.62;82.81;97665.38;10361316;28;20714;-76
2023/07/23 03:43:27;;;;;;;4.80;3.97;;;13.70;99.90;;;14.57;82.48;97656.63;10360546;28;20245;-77
2023/07/23 03:48:30;;;;;;;3.90;3.60;;;13.70;99.90;;;14.54;83.21;97657.38;10354010;28;20281;-76
2023/07/23 03:53:33;;;;;;;4.40;4.00;;;13.60;99.90;;;14.51;82.33;97658.94;10354618;28;20618;-77
2023/07/23 03:58:37;;;;;;;4.22;3.92;;;13.60;99.90;;;14.47;83.63;97660.47;10353947;28;20226;-76
2023/07/23 04:03:40;;;;;;;4.65;4.25;;;13.60;99.90;;;14.46;83.33;97657.88;10350584;28;20284;-76
2023/07/23 04:08:43;;;;;;;4.40;4.00;;;13.60;99.90;;;14.48;83.78;97662.25;10362204;28;20249;-77
2023/07/23 04:13:51;;;;;;;4.38;4.03;;;13.60;99.90;;;14.50;83.25;97660.59;10355048;28;20241;-77
2023/07/23 04:18:54;;;;;;;4.60;4.20;;;13.60;99.90;;;14.49;83.25;97663.13;10359268;28;21007;-77
2023/07/23 04:23:58;;;;;;;4.28;3.88;;;13.60;99.90;;;14.51;82.90;97670.09;10362995;28;20277;-77
2023/07/23 04:29:03;;;;;;;4.45;4.10;;;13.70;99.90;;;14.59;83.34;97673.88;10358750;28;20249;-77
2023/07/23 04:34:06;;;;;;;4.65;4.30;;;13.70;99.90;;;14.69;82.64;97676.78;10355664;28;20234;-76
2023/07/23 04:39:09;;;;;;;4.88;4.47;;;13.80;99.90;;;14.75;82.34;97672.72;10361303;28;20313;-76
2023/07/23 04:44:14;;;;;;;4.53;4.03;;;14.00;99.90;;;14.91;82.76;97678.44;10355878;28;20232;-77
2023/07/23 04:49:17;;;;;;;4.18;3.78;;;14.10;99.90;;;15.09;81.78;97679.13;10348077;28;20261;-78
2023/07/23 04:54:20;;;;;;;4.07;3.78;;;14.30;99.90;;;15.57;79.80;97667.91;10359036;28;20240;-76
2023/07/23 04:59:25;;;;;;;4.90;4.03;;;14.60;99.90;;;15.58;80.00;97670.56;10360266;28;20658;-77
2023/07/23 05:04:28;;;;;;;3.97;3.33;;;14.70;99.90;;;15.90;78.45;97678.53;10364702;28;20678;-77
2023/07/23 05:09:31;;;;;;;3.97;3.67;;;14.90;99.90;;;16.15;76.37;97686.25;10352157;28;20229;-77
2023/07/23 05:14:35;;;;;;;4.20;3.80;;;15.10;99.90;;;16.23;76.90;97683.91;10357380;28;20729;-76
2023/07/23 05:19:38;;;;;;;4.40;3.75;;;15.30;99.90;;;16.71;74.53;97677.63;10354761;28;20223;-76
2023/07/23 05:24:41;;;;;;;4.28;3.97;;;15.80;99.90;;;17.36;72.69;97675.22;10356998;28;20234;-79
2023/07/23 05:29:46;;;;;;;3.90;3.60;;;16.50;99.90;;;18.72;67.88;97676.06;10362698;28;20222;-78
2023/07/23 05:34:49;;;;;;;3.78;3.47;;;18.20;99.90;;;20.19;60.56;97676.31;10351668;28;20233;-77
2023/07/23 05:39:53;;;;;;;3.47;3.17;;;19.40;99.90;;;21.40;56.16;97665.88;10357757;28;20908;-78
2023/07/23 05:44:58;;;;;;;3.50;3.25;;;20.60;99.90;;;22.16;52.95;97665.75;10348118;28;20230;-78
2023/07/23 05:50:01;;;;;;;3.95;3.65;;;20.90;98.20;;;22.77;51.42;97670.53;10352051;28;20223;-78
2023/07/23 05:55:06;;;;;;;3.90;3.40;;;21.40;96.90;;;23.33;50.27;97665.63;10351772;28;20238;-79
2023/07/23 06:00:12;;;;;;;3.33;3.03;;;21.90;96.00;;;24.00;47.87;97666.66;10355765;28;20324;-75
2023/07/23 06:05:15;;;;;;;5.72;3.47;;;22.50;94.20;;;24.20;47.42;97667.53;10357093;28;20230;-77
2023/07/23 06:10:18;;;;;;;3.78;3.47;;;22.20;94.60;;;24.85;46.18;97659.63;10362650;28;20229;-77
2023/07/23 06:15:23;;;;;;;3.92;3.63;;;22.80;93.40;;;25.56;44.51;97666.34;10355964;28;20229;-78
2023/07/23 06:20:26;;;;;;;4.13;3.72;;;23.40;92.80;;;26.22;43.52;97658.03;10357785;28;20731;-77
2023/07/23 06:25:30;;;;;;;3.67;3.38;;;23.90;92.30;;;26.97;42.04;97669.56;10353638;28;20241;-76
2023/07/23 06:30:35;;;;;;;3.78;3.38;;;24.80;90.70;;;27.88;40.06;97665.81;10359352;28;20236;-76
2023/07/23 06:35:43;;;;;;;3.22;2.85;;;25.50;88.20;;;28.57;38.29;97656.81;10351514;28;20275;-77
2023/07/23 06:40:46;;;;;;;3.22;2.92;;;26.10;85.60;;;29.69;36.94;97654.59;10357659;28;20225;-75
2023/07/23 06:45:52;;;;;;;3.28;3.08;;;27.20;82.70;;;29.64;36.10;97652.91;10359496;28;20232;-76
2023/07/23 06:50:56;;;;;;;3.22;3.00;;;27.30;80.20;;;29.31;36.31;97656.28;10365669;28;20312;-76
2023/07/23 06:56:02;;;;;;;2.83;2.63;;;26.90;80.90;;;29.10;37.02;97650.56;10363736;28;20237;-77
2023/07/23 07:01:09;;;;;;;3.58;3.28;;;26.80;80.60;;;29.54;36.07;97659.28;10358750;28;20227;-76
2023/07/23 07:06:12;;;;;;;3.28;2.70;;;27.50;78.00;;;29.51;34.17;97658.50;10362301;28;20741;-76
2023/07/23 07:11:15;;;;;;;3.10;2.80;;;27.60;74.50;;;29.00;34.90;97667.41;10366013;28;20316;-76
2023/07/23 07:16:27;;;;;;;2.88;2.67;;;27.20;75.50;;;28.25;35.98;97666.97;10364035;28;20241;-75
2023/07/23 07:21:30;;;;;;;2.83;2.63;;;26.50;76.60;;;27.93;36.08;97674.47;10356911;28;20229;-76
2023/07/23 07:26:33;;;;;;;3.38;2.97;;;26.30;76.10;;;27.80;37.26;97677.31;10365637;28;20723;-76
2023/07/23 07:31:38;;;;;;;3.53;2.88;;;26.60;76.40;;;28.79;36.28;97668.69;10353818;28;20222;-76
2023/07/23 07:36:41;;;;;;;3.28;2.85;;;27.40;75.20;;;28.94;34.15;97667.53;10350559;28;20620;-77
2023/07/23 07:41:44;;;;;;;3.00;2.55;;;27.70;70.70;;;28.23;34.64;97666.13;10359775;28;20233;-77
2023/07/23 07:46:49;;;;;;;3.33;2.58;;;26.90;71.00;;;27.52;35.28;97662.78;10349784;28;20245;-78
2023/07/23 07:51:52;;;;;;;2.88;2.58;;;26.30;71.60;;;29.39;33.08;97649.94;10353609;28;20233;-78
2023/07/23 07:56:56;;;;;;;3.03;2.63;;;28.20;69.50;;;30.68;30.91;97656.59;10359610;28;20238;-77
2023/07/23 08:02:01;;;;;;;2.70;2.50;;;29.20;66.30;;;31.35;29.45;97646.81;10358119;28;20232;-77
2023/07/23 08:07:06;;;;;;;2.70;2.30;;;30.20;63.10;;;31.87;28.92;97641.69;10348244;28;20909;-75
2023/07/23 08:12:12;;;;;;;2.45;2.25;;;30.20;62.90;;;32.11;28.31;97655.97;10352512;28;20234;-78
2023/07/23 08:17:18;;;;;;;3.08;2.53;;;30.60;61.80;;;31.97;28.23;97647.59;10354682;28;20226;-77
2023/07/23 08:22:22;;;;;;;2.85;2.47;;;30.90;60.30;;;31.71;28.67;97649.25;10346693;28;20234;-77
2023/07/23 08:27:28;;;;;;;2.90;2.58;;;30.90;60.70;;;31.72;28.98;97648.34;10353522;28;20225;-77
2023/07/23 08:32:33;;;;;;;2.80;2.60;;;30.80;60.80;;;31.48;29.46;97641.16;10353491;28;20635;-77
2023/07/23 08:37:37;;;;;;;2.40;2.20;;;30.60;60.80;;;31.18;29.94;97636.72;10356449;28;20238;-77
2023/07/23 08:43:19;;;;;;;3.10;2.80;;;30.70;60.70;;;30.40;30.70;97640.63;10358623;28;20230;-78
2023/07/23 08:48:31;;;;;;;2.70;2.50;;;30.20;60.40;;;30.47;31.10;97645.66;10381564;28;20237;-80
2023/07/23 08:53:34;;;;;;;2.60;2.40;;;30.10;61.60;;;30.75;30.87;97642.31;10382685;28;20245;-81
2023/07/23 08:58:39;;;;;;;2.97;2.30;;;30.40;61.60;;;30.88;30.57;97648.16;10372701;28;20272;-79
2023/07/23 09:03:44;;;;;;;2.63;2.42;;;30.60;60.70;;;30.93;30.58;97641.84;10380875;28;20230;-79
2023/07/23 09:08:47;;;;;;;2.90;2.38;;;30.40;61.60;;;30.21;31.77;97646.34;10354546;28;20325;-78
2023/07/23 09:13:51;;;;;;;2.72;2.28;;;29.90;62.20;;;30.09;32.16;97646.63;10351707;28;20226;-78
2023/07/23 09:18:55;;;;;;;2.53;2.10;;;29.60;63.00;;;30.14;31.87;97633.34;10355281;28;20344;-79
2023/07/23 09:24:02;;;;;;;2.63;2.30;;;29.20;64.20;;;29.47;33.37;97643.63;10347004;28;20257;-79
2023/07/23 09:29:10;;;;;;;2.95;2.70;;;28.50;65.30;;;29.10;34.03;97640.03;10352152;28;20225;-78
2023/07/23 09:34:21;;;;;;;4.95;2.97;;;28.00;67.60;;;29.09;34.54;97630.38;10348372;28;20232;-78
2023/07/23 09:39:27;;;;;;;3.13;2.70;;;27.90;68.10;;;29.24;34.37;97628.34;10357876;28;20317;-78
2023/07/23 09:44:30;;;;;;;2.42;2.22;;;28.20;67.90;;;29.54;33.53;97622.41;10383251;28;20243;-78
2023/07/23 09:49:35;;;;;;;2.90;2.38;;;28.70;66.30;;;29.92;33.90;97607.47;10369869;28;20245;-79
2023/07/23 09:54:38;;;;;;;2.88;2.60;;;29.20;66.30;;;30.24;32.92;97611.97;10371931;28;20236;-78
2023/07/23 09:59:42;;;;;;;2.67;2.47;;;29.50;65.30;;;30.22;32.64;97610.31;10374184;28;20320;-82
2023/07/23 10:04:48;;;;;;;2.60;2.40;;;29.30;65.00;;;30.01;32.99;97596.69;10378347;28;20393;-78
2023/07/23 10:09:52;;;;;;;2.78;1.95;;;29.10;65.80;;;29.74;32.92;97600.88;10375735;28;20965;-79
2023/07/23 10:14:56;;;;;;;2.42;2.22;;;28.90;65.20;;;29.56;32.86;97604.81;10375407;28;20294;-79
2023/07/23 10:20:02;;;;;;;2.90;2.05;;;29.10;64.20;;;29.59;33.10;97582.78;10366039;28;20239;-78
2023/07/23 10:25:30;;;;;;;4.35;3.92;;;29.20;63.60;;;29.88;32.80;97595.28;10369705;28;20317;-78
2023/07/23 10:30:41;;;;;;;2.80;2.10;;;29.50;64.00;;;30.14;32.20;97592.00;10362232;28;20445;-77
2023/07/23 10:36:04;;;;;;;2.67;2.15;;;29.40;64.10;;;29.94;32.51;97584.59;10358370;28;20860;-75
2023/07/23 10:41:08;;;;;;;2.97;1.75;;;29.00;64.30;;;29.82;32.93;97577.00;10359721;28;20594;-76
2023/07/23 10:46:13;;;;;;;2.72;2.30;;;29.00;64.20;;;29.83;33.09;97570.81;10354626;28;20316;-78
2023/07/23 10:51:20;;;;;;;2.70;2.50;;;29.30;64.40;;;29.77;33.14;97565.69;10346622;28;20344;-78
2023/07/23 10:56:33;;;;;;;2.67;2.47;;;29.10;64.50;;;29.88;32.81;97562.81;10355603;28;20238;-78
2023/07/23 11:01:42;;;;;;;3.03;2.80;;;29.40;64.30;;;30.09;32.39;97557.84;10355090;28;20226;-78
2023/07/23 11:06:58;;;;;;;3.33;2.60;;;29.70;62.80;;;30.36;31.84;97550.16;10353076;28;20719;-77
2023/07/23 11:12:05;;;;;;;2.90;2.60;;;29.90;62.20;;;30.40;31.64;97541.22;10365968;28;20252;-77
2023/07/23 11:17:10;;;;;;;20.83;18.98;;;30.00;61.90;;;30.13;31.78;97537.50;10345739;28;20218;-77
2023/07/23 11:22:14;;;;;;;3.35;2.90;;;29.70;62.20;;;30.05;31.46;97540.38;10358747;28;20238;-78
2023/07/23 11:27:17;;;;;;;3.13;2.83;;;29.60;61.50;;;30.19;30.58;97536.50;10356216;28;20724;-78
2023/07/23 11:32:22;;;;;;;5.25;4.05;;;29.60;60.30;;;30.39;28.55;97523.69;10351461;28;20245;-77
2023/07/23 11:37:26;;;;;;;4.57;3.35;;;30.00;57.70;;;30.67;27.47;97550.13;10350898;28;20232;-77
2023/07/23 11:42:33;;;;;;;4.13;3.70;;;30.00;56.60;;;30.19;27.25;97541.75;10354144;28;20967;-76
2023/07/23 11:47:48;;;;;;;5.03;3.67;;;29.30;55.70;;;29.93;28.49;97545.06;10350154;28;20237;-76
2023/07/23 11:53:04;;;;;;;5.60;3.10;;;29.30;57.00;;;29.87;28.53;97532.91;10346329;28;20300;-76
2023/07/23 11:58:07;;;;;;;2.88;2.55;;;29.30;57.10;;;30.01;28.13;97519.38;10353142;28;20222;-77
2023/07/23 12:03:11;;;;;;;3.55;3.17;;;29.40;56.80;;;29.82;27.65;97532.19;10352580;28;20229;-77
2023/07/23 12:08:16;;;;;;;3.55;3.03;;;29.30;56.20;;;29.54;28.77;97522.28;10352134;28;20273;-77
2023/07/23 12:13:19;;;;;;;3.50;3.20;;;28.70;57.30;;;29.75;28.37;97493.72;10350041;28;20750;-76
2023/07/23 12:18:23;;;;;;;3.80;3.50;;;29.30;56.70;;;29.81;27.66;97504.09;10356568;28;20782;-75
2023/07/23 12:23:44;;;;;;;2.90;2.70;;;29.30;56.10;;;29.69;28.66;97492.09;10344652;28;20238;-78
2023/07/23 12:28:47;;;;;;;4.45;2.65;;;29.10;56.80;;;30.14;28.17;97488.31;10347173;28;20649;-77
2023/07/23 12:33:50;;;;;;;3.17;2.88;;;29.60;56.50;;;30.20;27.58;97477.59;10353631;28;20316;-78
2023/07/23 12:38:55;;;;;;;3.08;2.80;;;29.50;55.80;;;30.22;27.19;97489.84;10350478;28;20230;-77
2023/07/23 12:43:58;;;;;;;2.92;2.67;;;29.60;55.70;;;30.27;26.77;97492.34;10346219;28;20375;-78
2023/07/23 12:49:02;;;;;;;2.85;2.50;;;29.70;55.10;;;30.32;27.16;97487.81;10348480;28;21033;-78
2023/07/23 12:54:07;;;;;;;3.00;2.75;;;29.60;55.40;;;30.27;26.62;97487.94;10350204;28;20324;-77
2023/07/23 12:59:12;;;;;;;2.97;2.67;;;29.70;54.40;;;30.37;26.75;97483.28;10352937;28;20226;-77
2023/07/23 13:04:15;;;;;;;3.13;2.83;;;29.60;54.80;;;30.27;27.25;97484.44;10349714;28;20221;-78
2023/07/23 13:09:19;;;;;;;2.83;2.55;;;29.40;55.90;;;30.32;26.31;97479.03;10345459;28;20237;-77
2023/07/23 13:14:23;;;;;;;2.92;2.72;;;29.40;54.40;;;30.38;27.27;97497.34;10351234;28;20324;-79
2023/07/23 13:19:26;;;;;;;2.60;2.40;;;29.60;55.50;;;30.18;28.50;97514.53;10350456;28;20229;-79
2023/07/23 13:24:30;;;;;;;3.10;2.72;;;29.20;57.50;;;29.86;30.29;97502.22;10340945;28;20233;-75
2023/07/23 13:29:34;;;;;;;3.10;2.80;;;28.80;59.50;;;29.72;30.80;97499.06;10353179;28;20225;-78
2023/07/23 13:34:37;;;;;;;3.78;3.00;;;28.60;60.80;;;29.71;30.53;97492.94;10346972;28;20279;-78
2023/07/23 13:39:41;;;;;;;3.75;2.90;;;28.60;59.60;;;29.80;30.53;97499.72;10352307;28;20226;-75
2023/07/23 13:44:44;;;;;;;2.78;2.58;;;28.60;60.40;;;29.48;31.27;97506.63;10346288;28;20233;-77
2023/07/23 13:49:48;;;;;;;3.20;3.00;;;28.40;61.30;;;29.32;32.54;97502.63;10348401;28;20226;-78
2023/07/23 13:54:52;;;;;;;3.15;2.90;;;28.20;62.80;;;29.27;31.84;97491.34;10360035;28;20218;-76
2023/07/23 13:59:57;;;;;;;2.70;2.50;;;28.20;62.20;;;29.28;32.28;97503.63;10350592;28;20325;-77
2023/07/23 14:05:00;;;;;;;3.40;3.10;;;28.30;62.90;;;28.98;35.33;97506.84;10341968;28;20230;-78
2023/07/23 14:10:06;;;;;;;3.40;2.80;;;28.00;67.20;;;28.91;33.98;97496.53;10354988;28;20234;-76
2023/07/23 14:15:10;;;;;;;2.97;2.78;;;27.80;65.90;;;29.11;31.98;97491.69;10353703;28;20707;-78
2023/07/23 14:20:13;;;;;;;3.20;2.95;;;28.00;62.60;;;29.15;32.26;97487.22;10340434;28;20256;-76
2023/07/23 14:25:18;;;;;;;3.35;3.05;;;28.00;62.00;;;29.44;31.03;97476.00;10358518;28;20349;-78
2023/07/23 14:30:21;;;;;;;5.57;5.07;;;28.30;60.10;;;29.33;30.26;97475.38;10352792;28;20233;-78
2023/07/23 14:35:27;;;;;;;14.25;10.38;;;28.20;59.60;;;29.21;29.10;97459.88;10349727;28;20253;-78
2023/07/23 14:40:31;;;;;;;9.60;8.57;;;28.20;58.20;;;29.24;29.28;97472.97;10353524;28;20268;-79
2023/07/23 14:45:34;;;;;;;8.35;6.80;;;28.40;58.10;;;29.15;29.39;97480.19;10346553;28;20232;-78
2023/07/23 14:50:37;;;;;;;9.48;8.23;;;28.40;57.70;;;29.12;29.79;97464.47;10344541;28;20708;-78
2023/07/23 14:55:42;;;;;;;10.02;7.97;;;28.40;58.80;;;29.05;32.34;97481.31;10349752;28;20717;-77
2023/07/23 15:00:46;;;;;;;8.90;6.97;;;28.20;61.90;;;28.96;33.52;97474.47;10347625;28;20231;-78
2023/07/23 15:05:49;;;;;;;7.10;5.88;;;27.80;64.50;;;28.67;32.62;97475.13;10360053;28;20341;-77
2023/07/23 15:10:54;;;;;;;7.10;6.40;;;27.60;63.00;;;28.46;33.51;97471.16;10364064;28;20240;-78
2023/07/23 15:15:57;;;;;;;11.52;8.35;;;27.50;64.80;;;28.43;33.87;97475.63;10360816;28;20238;-78
2023/07/23 15:21:02;;;;;;;6.50;5.80;;;27.40;63.60;;;28.54;32.59;97478.88;10358028;28;20841;-77
2023/07/23 15:26:10;;;;;;;6.45;4.38;;;27.50;62.60;;;28.78;32.68;97474.84;10367716;28;20242;-79
2023/07/23 15:31:14;;;;;;;5.30;4.60;;;27.60;62.40;;;28.79;31.37;97473.09;10352598;28;20330;-78
2023/07/23 15:36:17;;;;;;;5.70;5.10;;;27.70;61.00;;;28.84;30.73;97474.72;10353736;28;20253;-78
2023/07/23 15:41:21;;;;;;;6.40;4.90;;;27.70;60.00;;;28.85;31.29;97480.88;10361130;28;20232;-78
2023/07/23 15:46:24;;;;;;;5.32;4.82;;;27.70;61.00;;;28.45;35.83;97466.78;10354151;28;20236;-79
2023/07/23 15:51:28;;;;;;;5.53;4.65;;;27.50;68.70;;;28.25;33.54;97466.31;10354030;28;20229;-79
2023/07/23 15:56:33;;;;;;;5.22;4.72;;;27.20;63.30;;;28.20;31.14;97457.63;10355054;28;20758;-78
2023/07/23 16:01:36;;;;;;;5.93;4.85;;;27.10;60.40;;;28.12;30.95;97460.41;10357855;28;20703;-78
2023/07/23 16:06:39;;;;;;;5.65;5.15;;;27.00;59.30;;;27.99;30.00;97454.53;10357610;28;20625;-79
2023/07/23 16:11:44;;;;;;;5.97;5.45;;;26.90;59.00;;;28.02;31.01;97456.25;10351118;28;20230;-78
2023/07/23 16:16:47;;;;;;;6.05;5.45;;;26.90;59.70;;;27.72;31.06;97461.13;10343129;28;20241;-78
2023/07/23 16:21:50;;;;;;;6.10;5.50;;;26.70;59.70;;;27.59;31.75;97455.22;10347176;28;20321;-77
2023/07/23 16:26:54;;;;;;;6.80;6.20;;;26.50;60.00;;;27.46;32.13;97453.69;10347978;28;20225;-78
2023/07/23 16:31:58;;;;;;;6.70;5.85;;;26.50;60.50;;;27.29;32.63;97451.34;10354848;28;20253;-79
2023/07/23 16:37:07;;;;;;;7.25;6.45;;;26.30;61.60;;;27.22;33.17;97451.47;10352552;28;20696;-77
2023/07/23 16:42:14;;;;;;;7.05;6.35;;;26.20;62.20;;;27.13;33.54;97449.84;10355855;28;20386;-77
2023/07/23 16:47:17;;;;;;;6.28;5.68;;;26.20;63.10;;;27.04;33.83;97452.56;10350571;28;20233;-78
2023/07/23 16:52:21;;;;;;;6.53;5.72;;;26.00;63.50;;;26.94;34.16;97444.84;10349593;28;20234;-78
2023/07/23 16:57:25;;;;;;;6.15;5.55;;;25.90;63.80;;;26.90;34.00;97443.16;10353261;28;20221;-78
2023/07/23 17:02:28;;;;;;;6.10;5.50;;;25.90;63.50;;;26.85;34.52;97442.38;10355421;28;20288;-78
2023/07/23 17:07:32;;;;;;;5.97;5.38;;;25.90;64.70;;;26.83;35.36;97444.13;10358801;28;20652;-78
2023/07/23 17:12:36;;;;;;;5.43;4.90;;;25.80;66.30;;;26.79;35.68;97428.47;10360218;28;20236;-79
2023/07/23 17:17:39;;;;;;;6.25;4.93;;;25.80;66.50;;;26.74;35.69;97423.28;10344634;28;20244;-78
2023/07/23 17:22:42;;;;;;;6.00;5.40;;;25.70;66.10;;;26.73;35.54;97426.81;10356495;28;20348;-78
2023/07/23 17:27:47;;;;;;;5.22;4.72;;;25.70;66.10;;;26.77;35.23;97420.63;10346087;28;20623;-77
2023/07/23 17:32:50;;;;;;;6.28;4.95;;;25.60;66.40;;;26.58;35.55;97437.50;10347873;28;20226;-77
2023/07/23 17:37:53;;;;;;;6.32;5.70;;;25.50;65.60;;;26.39;37.58;97422.00;10357955;28;20245;-79
2023/07/23 17:42:58;;;;;;;5.82;5.22;;;25.40;69.70;;;26.04;40.73;97418.06;10343009;28;20234;-78
2023/07/23 17:48:01;;;;;;;6.32;5.72;;;25.10;73.80;;;25.70;42.05;97412.28;10348159;28;20233;-78
2023/07/23 17:53:04;;;;;;;8.93;8.02;;;24.70;77.00;;;25.50;42.10;97394.16;10346291;28;20769;-78
2023/07/23 17:58:11;;;;;;;8.35;7.55;;;24.50;76.70;;;25.44;41.43;97396.84;10347106;28;20233;-77
2023/07/23 18:03:14;;;;;;;8.25;7.45;;;24.50;75.40;;;25.39;41.13;97398.63;10347284;28;20233;-78
2023/07/23 18:08:17;;;;;;;7.90;6.47;;;24.40;75.90;;;25.38;41.53;97373.31;10362898;28;20766;-80
2023/07/23 18:13:22;;;;;;;7.00;6.30;;;24.30;74.20;;;25.33;41.33;97351.59;10356367;28;20262;-78
2023/07/23 18:18:25;;;;;;;7.03;6.32;;;24.30;76.30;;;25.28;42.17;97366.44;10354406;28;20237;-79
2023/07/23 18:23:32;;;;;;;6.63;5.75;;;24.30;77.10;;;25.16;42.76;97373.53;10357880;28;20234;-80
2023/07/23 18:28:37;;;;;;;7.65;6.20;;;24.20;77.10;;;25.02;42.74;97372.75;10353900;28;20234;-78
2023/07/23 18:33:41;;;;;;;6.60;6.00;;;24.00;78.40;;;24.96;44.20;97375.41;10343402;28;20245;-78
2023/07/23 18:38:44;;;;;;;7.60;6.80;;;24.00;80.30;;;24.89;44.00;97368.47;10360514;28;20226;-79
2023/07/23 18:43:48;;;;;;;8.50;6.95;;;23.80;80.50;;;24.64;44.59;97360.84;10361521;28;20226;-81
2023/07/23 18:48:52;;;;;;;7.88;7.07;;;23.60;80.60;;;24.52;44.85;97358.28;10357007;28;20778;-79
2023/07/23 18:53:55;;;;;;;6.55;5.95;;;23.50;81.00;;;24.44;44.52;97373.16;10362996;28;20234;-80
2023/07/23 18:58:59;;;;;;;6.53;5.93;;;23.40;80.80;;;24.37;44.79;97368.81;10358409;28;20612;-79
2023/07/23 19:04:03;;;;;;;7.65;6.85;;;23.40;81.60;;;24.27;45.39;97362.78;10347477;28;20673;-80
2023/07/23 19:09:13;;;;;;;6.85;6.15;;;23.30;81.50;;;24.17;45.69;97372.38;10372710;28;20295;-77
2023/07/23 19:14:23;;;;;;;7.13;6.43;;;23.10;83.30;;;24.09;46.79;97363.69;10390483;28;20305;-78
2023/07/23 19:19:29;;;;;;;7.60;6.70;;;23.00;85.10;;;23.71;48.91;97364.72;10407322;28;20226;-77
2023/07/23 19:24:33;;;;;;;7.95;6.72;;;22.70;87.50;;;23.60;49.53;97363.84;10395193;28;20226;-76
2023/07/23 19:29:38;;;;;;;8.48;7.53;;;22.50;89.40;;;23.33;50.10;97377.81;10356943;28;20718;-78
2023/07/23 19:34:42;;;;;;;7.45;6.75;;;22.20;89.90;;;23.20;50.68;97369.13;10352520;28;20234;-77
2023/07/23 19:39:45;;;;;;;9.07;8.13;;;22.00;90.80;;;22.98;50.73;97370.00;10353164;28;20288;-78
2023/07/23 19:44:49;;;;;;;7.53;6.72;;;21.90;90.60;;;22.83;49.97;97366.50;10356427;28;20234;-78
2023/07/23 19:49:52;;;;;;;8.07;7.22;;;21.70;90.40;;;22.54;50.17;97366.47;10354092;28;20230;-78
2023/07/23 19:54:55;;;;;;;7.78;6.72;;;21.40;90.40;;;22.23;50.41;97371.63;10358895;28;20230;-79
2023/07/23 20:00:04;;;;;;;7.05;6.38;;;21.10;90.40;;;22.04;50.14;97368.03;10348270;28;20226;-77
2023/07/23 20:05:09;;;;;;;7.43;6.68;;;21.00;90.30;;;21.93;50.85;97372.34;10334851;28;20823;-76
2023/07/23 20:10:13;;;;;;;7.38;6.18;;;20.80;90.90;;;21.68;51.78;97380.88;10349679;28;20230;-77
2023/07/23 20:15:19;;;;;;;6.45;5.85;;;20.60;91.50;;;21.65;51.32;97375.66;10343744;28;20233;-76
2023/07/23 20:20:22;;;;;;;7.43;6.63;;;20.60;91.20;;;21.56;51.50;97377.34;10349229;28;20234;-76
2023/07/23 20:25:25;;;;;;;6.95;6.25;;;20.50;91.00;;;21.51;52.49;97388.59;10352625;28;20765;-77
2023/07/23 20:30:31;;;;;;;6.95;6.25;;;20.50;91.80;;;21.46;53.06;97385.97;10346895;28;20864;-77
2023/07/23 20:35:35;;;;;;;8.07;6.72;;;20.40;92.40;;;21.43;52.68;97377.25;10347773;28;20237;-77
2023/07/23 20:40:39;;;;;;;7.13;6.43;;;20.30;92.10;;;21.17;52.72;97383.13;10344434;28;20223;-77
2023/07/23 20:45:44;;;;;;;8.18;6.90;;;20.20;92.50;;;21.09;53.45;97380.47;10345771;28;20234;-77
2023/07/23 20:50:47;;;;;;;7.63;6.70;;;20.00;92.90;;;21.00;53.84;97377.78;10354242;28;20243;-77
2023/07/23 20:55:50;;;;;;;7.65;6.60;;;20.00;92.90;;;20.81;53.37;97373.31;10357374;28;20230;-79
2023/07/23 21:00:55;;;;;;;7.38;6.45;;;19.80;92.70;;;20.51;54.19;97363.47;10357986;28;20230;-78
2023/07/23 21:05:58;;;;;;;7.82;6.55;;;19.60;93.10;;;20.18;56.05;97354.47;10359649;28;20288;-79